sensor_id;sensor_type;location;lat;lon;timestamp;pressure;altitude;pressure_sealevel;temperature;humidity
49393;BME280;35268;42.642;23.308;2023-10-09T00:00:25;94415.53;;;16.99;55.87
49393;BME280;35268;42.642;23.308;2023-10-09T00:03:13;94414.31;;;16.97;55.75
49393;BME280;35268;42.642;23.308;2023-10-09T00:05:39;94417.34;;;16.95;55.88
49393;BME280;35268;42.642;23.308;2023-10-09T00:08:15;94424.91;;;16.90;56.09
49393;BME280;35268;42.642;23.308;2023-10-09T00:10:50;94427.47;;;16.86;56.35
49393;BME280;35268;42.642;23.308;2023-10-09T00:13:25;94425.56;;;16.87;56.27
49393;BME280;35268;42.642;23.308;2023-10-09T00:15:58;94437.22;;;16.91;56.30
49393;BME280;35268;42.642;23.308;2023-10-09T00:18:34;94430.63;;;16.88;56.18
49393;BME280;35268;42.642;23.308;2023-10-09T00:21:00;94432.84;;;16.86;56.44
49393;BME280;35268;42.642;23.308;2023-10-09T00:23:38;94416.25;;;16.84;56.01
49393;BME280;35268;42.642;23.308;2023-10-09T00:26:08;94434.50;;;16.78;56.37
49393;BME280;35268;42.642;23.308;2023-10-09T00:28:36;94429.13;;;16.78;56.48
49393;BME280;35268;42.642;23.308;2023-10-09T00:31:04;94427.00;;;16.72;56.31
49393;BME280;35268;42.642;23.308;2023-10-09T00:33:32;94426.56;;;16.70;56.30
49393;BME280;35268;42.642;23.308;2023-10-09T00:36:06;94423.31;;;16.64;56.26
49393;BME280;35268;42.642;23.308;2023-10-09T00:38:38;94415.81;;;16.57;56.86
49393;BME280;35268;42.642;23.308;2023-10-09T00:41:14;94421.41;;;16.52;56.56
49393;BME280;35268;42.642;23.308;2023-10-09T00:43:45;94422.28;;;16.56;56.46
49393;BME280;35268;42.642;23.308;2023-10-09T00:46:11;94424.97;;;16.56;56.57
49393;BME280;35268;42.642;23.308;2023-10-09T00:48:58;94422.09;;;16.49;56.89
49393;BME280;35268;42.642;23.308;2023-10-09T00:51:28;94438.22;;;16.49;56.95
49393;BME280;35268;42.642;23.308;2023-10-09T00:54:02;94437.53;;;16.40;56.70
49393;BME280;35268;42.642;23.308;2023-10-09T00:56:33;94454.38;;;16.37;56.85
49393;BME280;35268;42.642;23.308;2023-10-09T00:59:07;94445.59;;;16.28;57.05
49393;BME280;35268;42.642;23.308;2023-10-09T01:01:33;94438.31;;;16.28;57.02
49393;BME280;35268;42.642;23.308;2023-10-09T01:04:05;94444.69;;;16.23;57.23
49393;BME280;35268;42.642;23.308;2023-10-09T01:07:11;94444.94;;;16.18;57.14
49393;BME280;35268;42.642;23.308;2023-10-09T01:09:42;94454.78;;;16.14;57.17
49393;BME280;35268;42.642;23.308;2023-10-09T01:12:10;94461.50;;;16.08;57.00
49393;BME280;35268;42.642;23.308;2023-10-09T01:14:46;94468.97;;;16.02;57.19
49393;BME280;35268;42.642;23.308;2023-10-09T01:17:20;94478.06;;;15.98;56.89
49393;BME280;35268;42.642;23.308;2023-10-09T01:20:01;94461.00;;;15.94;56.88
49393;BME280;35268;42.642;23.308;2023-10-09T01:22:29;94462.53;;;15.82;56.87
49393;BME280;35268;42.642;23.308;2023-10-09T01:24:55;94464.31;;;15.78;57.44
49393;BME280;35268;42.642;23.308;2023-10-09T01:27:20;94467.66;;;15.75;57.36
49393;BME280;35268;42.642;23.308;2023-10-09T01:29:49;94490.66;;;15.64;57.30
49393;BME280;35268;42.642;23.308;2023-10-09T01:32:17;94493.88;;;15.57;56.91
49393;BME280;35268;42.642;23.308;2023-10-09T01:34:45;94479.06;;;15.51;57.44
49393;BME280;35268;42.642;23.308;2023-10-09T01:37:19;94465.22;;;15.40;57.20
49393;BME280;35268;42.642;23.308;2023-10-09T01:39:49;94464.72;;;15.26;57.54
49393;BME280;35268;42.642;23.308;2023-10-09T01:42:16;94475.38;;;15.14;57.76
49393;BME280;35268;42.642;23.308;2023-10-09T01:45:00;94489.72;;;15.18;57.86
49393;BME280;35268;42.642;23.308;2023-10-09T01:47:44;94495.94;;;15.10;57.31
49393;BME280;35268;42.642;23.308;2023-10-09T01:50:17;94500.75;;;14.95;57.33
49393;BME280;35268;42.642;23.308;2023-10-09T01:53:00;94534.72;;;14.91;57.68
49393;BME280;35268;42.642;23.308;2023-10-09T01:55:31;94532.88;;;14.83;57.82
49393;BME280;35268;42.642;23.308;2023-10-09T01:58:00;94517.91;;;14.82;57.93
49393;BME280;35268;42.642;23.308;2023-10-09T02:00:31;94514.91;;;14.75;58.47
49393;BME280;35268;42.642;23.308;2023-10-09T02:03:01;94514.28;;;14.78;58.30
49393;BME280;35268;42.642;23.308;2023-10-09T02:05:30;94525.03;;;14.78;58.22
49393;BME280;35268;42.642;23.308;2023-10-09T02:07:58;94526.59;;;14.79;58.24
49393;BME280;35268;42.642;23.308;2023-10-09T02:10:24;94518.84;;;14.77;57.67
49393;BME280;35268;42.642;23.308;2023-10-09T02:12:50;94529.31;;;14.70;57.94
49393;BME280;35268;42.642;23.308;2023-10-09T02:15:29;94529.63;;;14.69;58.05
49393;BME280;35268;42.642;23.308;2023-10-09T02:18:19;94534.38;;;14.72;57.74
49393;BME280;35268;42.642;23.308;2023-10-09T02:20:49;94542.56;;;14.67;57.34
49393;BME280;35268;42.642;23.308;2023-10-09T02:23:38;94561.81;;;14.69;56.84
49393;BME280;35268;42.642;23.308;2023-10-09T02:26:17;94554.91;;;14.59;56.92
49393;BME280;35268;42.642;23.308;2023-10-09T02:29:12;94554.91;;;14.59;56.73
49393;BME280;35268;42.642;23.308;2023-10-09T02:31:43;94560.28;;;14.50;56.58
49393;BME280;35268;42.642;23.308;2023-10-09T02:34:10;94554.31;;;14.36;56.80
49393;BME280;35268;42.642;23.308;2023-10-09T02:36:36;94548.66;;;14.29;56.55
49393;BME280;35268;42.642;23.308;2023-10-09T02:39:14;94559.25;;;14.16;57.04
49393;BME280;35268;42.642;23.308;2023-10-09T02:41:56;94542.22;;;14.12;57.44
49393;BME280;35268;42.642;23.308;2023-10-09T02:44:44;94543.38;;;14.02;57.50
49393;BME280;35268;42.642;23.308;2023-10-09T02:47:16;94545.09;;;13.98;57.41
49393;BME280;35268;42.642;23.308;2023-10-09T02:49:55;94551.09;;;13.87;57.50
49393;BME280;35268;42.642;23.308;2023-10-09T02:52:31;94557.22;;;13.70;58.07
49393;BME280;35268;42.642;23.308;2023-10-09T02:55:05;94581.03;;;13.71;58.11
49393;BME280;35268;42.642;23.308;2023-10-09T02:57:38;94588.72;;;13.55;58.56
49393;BME280;35268;42.642;23.308;2023-10-09T03:00:07;94584.31;;;13.42;58.88
49393;BME280;35268;42.642;23.308;2023-10-09T03:02:45;94586.53;;;13.49;58.98
49393;BME280;35268;42.642;23.308;2023-10-09T03:05:15;94587.78;;;13.42;59.20
49393;BME280;35268;42.642;23.308;2023-10-09T03:07:41;94592.00;;;13.35;59.44
49393;BME280;35268;42.642;23.308;2023-10-09T03:10:07;94577.69;;;13.31;59.54
49393;BME280;35268;42.642;23.308;2023-10-09T03:12:36;94580.03;;;13.32;59.59
49393;BME280;35268;42.642;23.308;2023-10-09T03:15:03;94574.63;;;13.15;60.00
49393;BME280;35268;42.642;23.308;2023-10-09T03:17:31;94582.94;;;13.04;60.29
49393;BME280;35268;42.642;23.308;2023-10-09T03:20:03;94577.25;;;12.97;60.40
49393;BME280;35268;42.642;23.308;2023-10-09T03:22:34;94580.81;;;12.84;61.04
49393;BME280;35268;42.642;23.308;2023-10-09T03:25:00;94586.81;;;12.81;61.15
49393;BME280;35268;42.642;23.308;2023-10-09T03:27:26;94606.00;;;12.83;61.10
49393;BME280;35268;42.642;23.308;2023-10-09T03:29:51;94609.16;;;12.85;60.91
49393;BME280;35268;42.642;23.308;2023-10-09T03:32:18;94610.56;;;12.82;60.76
49393;BME280;35268;42.642;23.308;2023-10-09T03:34:44;94623.81;;;12.88;60.94
49393;BME280;35268;42.642;23.308;2023-10-09T03:37:10;94626.94;;;12.81;60.84
49393;BME280;35268;42.642;23.308;2023-10-09T03:39:47;94613.81;;;12.71;60.84
49393;BME280;35268;42.642;23.308;2023-10-09T03:42:13;94607.81;;;12.65;61.20
49393;BME280;35268;42.642;23.308;2023-10-09T03:44:49;94605.09;;;12.56;60.84
49393;BME280;35268;42.642;23.308;2023-10-09T03:47:18;94618.00;;;12.54;60.82
49393;BME280;35268;42.642;23.308;2023-10-09T03:49:50;94619.50;;;12.47;60.92
49393;BME280;35268;42.642;23.308;2023-10-09T03:52:17;94622.00;;;12.43;61.16
49393;BME280;35268;42.642;23.308;2023-10-09T03:54:43;94618.84;;;12.41;61.17
49393;BME280;35268;42.642;23.308;2023-10-09T03:57:12;94634.28;;;12.44;60.69
49393;BME280;35268;42.642;23.308;2023-10-09T03:59:47;94637.03;;;12.30;61.14
49393;BME280;35268;42.642;23.308;2023-10-09T04:02:14;94628.09;;;12.35;61.13
49393;BME280;35268;42.642;23.308;2023-10-09T04:04:40;94631.88;;;12.34;60.94
49393;BME280;35268;42.642;23.308;2023-10-09T04:07:11;94632.47;;;12.31;60.66
49393;BME280;35268;42.642;23.308;2023-10-09T04:09:36;94635.44;;;12.29;60.77
49393;BME280;35268;42.642;23.308;2023-10-09T04:12:05;94631.50;;;12.27;60.61
49393;BME280;35268;42.642;23.308;2023-10-09T04:14:37;94628.53;;;12.28;60.61
49393;BME280;35268;42.642;23.308;2023-10-09T04:17:13;94632.28;;;12.27;60.34
49393;BME280;35268;42.642;23.308;2023-10-09T04:19:47;94633.09;;;12.28;59.98
49393;BME280;35268;42.642;23.308;2023-10-09T04:22:31;94635.09;;;12.22;59.79
49393;BME280;35268;42.642;23.308;2023-10-09T04:25:04;94626.19;;;12.13;58.13
49393;BME280;35268;42.642;23.308;2023-10-09T04:27:33;94629.00;;;12.08;57.75
49393;BME280;35268;42.642;23.308;2023-10-09T04:30:02;94634.53;;;12.11;57.51
49393;BME280;35268;42.642;23.308;2023-10-09T04:32:27;94641.25;;;12.09;57.70
49393;BME280;35268;42.642;23.308;2023-10-09T04:34:54;94641.88;;;12.06;57.59
49393;BME280;35268;42.642;23.308;2023-10-09T04:37:43;94645.34;;;12.06;57.09
49393;BME280;35268;42.642;23.308;2023-10-09T04:40:10;94635.75;;;12.05;56.22
49393;BME280;35268;42.642;23.308;2023-10-09T04:42:58;94635.56;;;12.01;56.48
49393;BME280;35268;42.642;23.308;2023-10-09T04:45:24;94645.88;;;11.94;54.96
49393;BME280;35268;42.642;23.308;2023-10-09T04:48:08;94642.91;;;11.96;54.79
49393;BME280;35268;42.642;23.308;2023-10-09T04:50:34;94643.09;;;11.99;54.04
49393;BME280;35268;42.642;23.308;2023-10-09T04:53:00;94641.34;;;11.95;52.48
49393;BME280;35268;42.642;23.308;2023-10-09T04:55:41;94636.59;;;11.92;52.38
49393;BME280;35268;42.642;23.308;2023-10-09T04:58:22;94633.31;;;11.95;52.16
49393;BME280;35268;42.642;23.308;2023-10-09T05:00:54;94636.78;;;11.95;51.62
49393;BME280;35268;42.642;23.308;2023-10-09T05:03:22;94644.59;;;11.92;50.52
49393;BME280;35268;42.642;23.308;2023-10-09T05:05:53;94648.53;;;11.94;50.10
49393;BME280;35268;42.642;23.308;2023-10-09T05:08:27;94659.06;;;11.91;49.94
49393;BME280;35268;42.642;23.308;2023-10-09T05:13:33;94657.22;;;11.86;49.89
49393;BME280;35268;42.642;23.308;2023-10-09T05:16:14;94663.00;;;11.79;49.38
49393;BME280;35268;42.642;23.308;2023-10-09T05:18:43;94656.44;;;11.85;49.36
49393;BME280;35268;42.642;23.308;2023-10-09T05:21:11;94664.69;;;11.89;49.73
49393;BME280;35268;42.642;23.308;2023-10-09T05:23:55;94656.56;;;11.94;48.97
49393;BME280;35268;42.642;23.308;2023-10-09T05:26:46;94664.28;;;11.96;48.61
49393;BME280;35268;42.642;23.308;2023-10-09T05:29:23;94673.38;;;11.95;48.83
49393;BME280;35268;42.642;23.308;2023-10-09T05:31:49;94669.19;;;12.02;48.74
49393;BME280;35268;42.642;23.308;2023-10-09T05:34:34;94688.09;;;12.06;48.48
49393;BME280;35268;42.642;23.308;2023-10-09T05:37:05;94689.56;;;12.12;48.50
49393;BME280;35268;42.642;23.308;2023-10-09T05:39:46;94708.06;;;12.09;47.91
49393;BME280;35268;42.642;23.308;2023-10-09T05:42:34;94702.41;;;12.10;47.80
49393;BME280;35268;42.642;23.308;2023-10-09T05:45:06;94704.50;;;12.13;48.58
49393;BME280;35268;42.642;23.308;2023-10-09T05:47:51;94704.03;;;12.11;47.99
49393;BME280;35268;42.642;23.308;2023-10-09T05:50:29;94704.19;;;12.15;47.67
49393;BME280;35268;42.642;23.308;2023-10-09T05:52:58;94712.41;;;12.18;47.70
49393;BME280;35268;42.642;23.308;2023-10-09T05:55:32;94707.53;;;12.20;47.75
49393;BME280;35268;42.642;23.308;2023-10-09T05:58:16;94720.81;;;12.26;47.18
49393;BME280;35268;42.642;23.308;2023-10-09T06:00:45;94727.28;;;12.33;46.52
49393;BME280;35268;42.642;23.308;2023-10-09T06:03:29;94732.97;;;12.32;46.53
49393;BME280;35268;42.642;23.308;2023-10-09T06:06:13;94735.44;;;12.28;46.69
49393;BME280;35268;42.642;23.308;2023-10-09T06:09:03;94739.69;;;12.29;46.66
49393;BME280;35268;42.642;23.308;2023-10-09T06:11:42;94742.28;;;12.20;46.96
49393;BME280;35268;42.642;23.308;2023-10-09T06:14:18;94747.34;;;12.22;47.08
49393;BME280;35268;42.642;23.308;2023-10-09T06:16:52;94744.53;;;12.27;46.88
49393;BME280;35268;42.642;23.308;2023-10-09T06:19:27;94758.59;;;12.33;46.98
49393;BME280;35268;42.642;23.308;2023-10-09T06:22:00;94762.22;;;12.37;46.90
49393;BME280;35268;42.642;23.308;2023-10-09T06:24:38;94769.28;;;12.33;46.39
49393;BME280;35268;42.642;23.308;2023-10-09T06:27:10;94760.53;;;12.41;47.00
49393;BME280;35268;42.642;23.308;2023-10-09T06:29:36;94764.38;;;12.49;46.68
49393;BME280;35268;42.642;23.308;2023-10-09T06:32:24;94765.50;;;12.48;46.77
49393;BME280;35268;42.642;23.308;2023-10-09T06:34:52;94771.63;;;12.48;46.79
49393;BME280;35268;42.642;23.308;2023-10-09T06:37:20;94758.25;;;12.48;46.26
49393;BME280;35268;42.642;23.308;2023-10-09T06:39:56;94762.38;;;12.54;46.01
49393;BME280;35268;42.642;23.308;2023-10-09T06:42:24;94767.13;;;12.57;46.46
49393;BME280;35268;42.642;23.308;2023-10-09T06:45:03;94754.72;;;12.61;46.29
49393;BME280;35268;42.642;23.308;2023-10-09T06:47:33;94757.63;;;12.74;46.14
49393;BME280;35268;42.642;23.308;2023-10-09T06:50:11;94752.22;;;12.88;45.78
49393;BME280;35268;42.642;23.308;2023-10-09T06:52:49;94752.16;;;13.01;44.64
49393;BME280;35268;42.642;23.308;2023-10-09T06:55:37;94754.19;;;13.04;43.99
49393;BME280;35268;42.642;23.308;2023-10-09T06:58:17;94754.38;;;13.08;42.86
49393;BME280;35268;42.642;23.308;2023-10-09T07:00:52;94765.31;;;12.89;41.65
49393;BME280;35268;42.642;23.308;2023-10-09T07:03:36;94760.00;;;12.98;42.77
49393;BME280;35268;42.642;23.308;2023-10-09T07:06:18;94755.31;;;13.03;42.71
49393;BME280;35268;42.642;23.308;2023-10-09T07:08:53;94755.16;;;13.09;42.94
49393;BME280;35268;42.642;23.308;2023-10-09T07:11:34;94751.59;;;13.13;40.82
49393;BME280;35268;42.642;23.308;2023-10-09T07:14:24;94756.66;;;13.15;41.85
49393;BME280;35268;42.642;23.308;2023-10-09T07:17:02;94760.41;;;13.14;42.01
49393;BME280;35268;42.642;23.308;2023-10-09T07:19:46;94776.94;;;13.16;41.76
49393;BME280;35268;42.642;23.308;2023-10-09T07:22:12;94778.53;;;13.17;41.13
49393;BME280;35268;42.642;23.308;2023-10-09T07:24:53;94757.66;;;13.28;41.55
49393;BME280;35268;42.642;23.308;2023-10-09T07:27:22;94758.19;;;13.38;41.24
49393;BME280;35268;42.642;23.308;2023-10-09T07:30:07;94767.84;;;13.48;40.85
49393;BME280;35268;42.642;23.308;2023-10-09T07:33:05;94765.47;;;13.47;40.87
49393;BME280;35268;42.642;23.308;2023-10-09T07:35:46;94768.03;;;13.52;38.37
49393;BME280;35268;42.642;23.308;2023-10-09T07:38:17;94776.06;;;13.52;38.93
49393;BME280;35268;42.642;23.308;2023-10-09T07:40:49;94785.97;;;13.51;38.34
49393;BME280;35268;42.642;23.308;2023-10-09T07:43:34;94766.41;;;13.42;38.16
49393;BME280;35268;42.642;23.308;2023-10-09T07:46:20;94770.34;;;13.44;38.66
49393;BME280;35268;42.642;23.308;2023-10-09T07:49:03;94774.47;;;13.51;37.96
49393;BME280;35268;42.642;23.308;2023-10-09T07:51:39;94773.22;;;13.48;37.68
49393;BME280;35268;42.642;23.308;2023-10-09T07:54:09;94772.44;;;13.56;38.50
49393;BME280;35268;42.642;23.308;2023-10-09T07:56:35;94763.00;;;13.59;40.12
49393;BME280;35268;42.642;23.308;2023-10-09T07:59:10;94784.16;;;13.69;38.87
49393;BME280;35268;42.642;23.308;2023-10-09T08:02:02;94781.47;;;13.69;38.01
49393;BME280;35268;42.642;23.308;2023-10-09T08:04:28;94781.00;;;13.67;37.15
49393;BME280;35268;42.642;23.308;2023-10-09T08:07:10;94777.22;;;13.68;38.11
49393;BME280;35268;42.642;23.308;2023-10-09T08:09:47;94781.66;;;13.73;37.68
49393;BME280;35268;42.642;23.308;2023-10-09T08:12:32;94782.78;;;13.80;37.34
49393;BME280;35268;42.642;23.308;2023-10-09T08:15:23;94775.84;;;13.79;36.22
49393;BME280;35268;42.642;23.308;2023-10-09T08:17:57;94779.00;;;13.81;35.91
49393;BME280;35268;42.642;23.308;2023-10-09T08:20:29;94762.31;;;13.84;36.65
49393;BME280;35268;42.642;23.308;2023-10-09T08:23:15;94772.09;;;13.98;37.17
49393;BME280;35268;42.642;23.308;2023-10-09T08:26:09;94758.88;;;13.93;36.81
49393;BME280;35268;42.642;23.308;2023-10-09T08:28:44;94767.69;;;14.02;36.41
49393;BME280;35268;42.642;23.308;2023-10-09T08:31:17;94752.88;;;13.96;36.83
49393;BME280;35268;42.642;23.308;2023-10-09T08:34:13;94752.72;;;13.92;37.20
49393;BME280;35268;42.642;23.308;2023-10-09T08:36:52;94750.84;;;14.01;37.21
49393;BME280;35268;42.642;23.308;2023-10-09T08:39:21;94745.50;;;14.19;36.82
49393;BME280;35268;42.642;23.308;2023-10-09T08:41:55;94733.84;;;14.32;36.62
49393;BME280;35268;42.642;23.308;2023-10-09T08:44:25;94735.09;;;14.35;36.14
49393;BME280;35268;42.642;23.308;2023-10-09T08:46:55;94731.63;;;14.43;35.80
49393;BME280;35268;42.642;23.308;2023-10-09T08:49:23;94717.75;;;14.50;36.00
49393;BME280;35268;42.642;23.308;2023-10-09T08:51:48;94728.19;;;14.51;35.71
49393;BME280;35268;42.642;23.308;2023-10-09T08:54:14;94726.59;;;14.59;35.64
49393;BME280;35268;42.642;23.308;2023-10-09T08:56:41;94719.84;;;14.61;35.16
49393;BME280;35268;42.642;23.308;2023-10-09T08:59:17;94718.25;;;14.60;34.85
49393;BME280;35268;42.642;23.308;2023-10-09T09:01:47;94721.56;;;14.57;34.64
49393;BME280;35268;42.642;23.308;2023-10-09T09:04:36;94709.06;;;14.53;33.87
49393;BME280;35268;42.642;23.308;2023-10-09T09:07:03;94710.50;;;14.59;33.81
49393;BME280;35268;42.642;23.308;2023-10-09T09:09:29;94711.00;;;14.70;33.92
49393;BME280;35268;42.642;23.308;2023-10-09T09:11:57;94707.78;;;14.85;34.17
49393;BME280;35268;42.642;23.308;2023-10-09T09:14:45;94707.94;;;14.89;33.89
49393;BME280;35268;42.642;23.308;2023-10-09T09:17:29;94715.19;;;14.97;33.65
49393;BME280;35268;42.642;23.308;2023-10-09T09:19:57;94709.66;;;14.93;34.35
49393;BME280;35268;42.642;23.308;2023-10-09T09:22:23;94710.44;;;15.02;34.32
49393;BME280;35268;42.642;23.308;2023-10-09T09:24:58;94702.50;;;15.06;34.07
49393;BME280;35268;42.642;23.308;2023-10-09T09:27:47;94708.34;;;15.17;33.69
49393;BME280;35268;42.642;23.308;2023-10-09T09:30:28;94708.16;;;15.22;33.36
49393;BME280;35268;42.642;23.308;2023-10-09T09:33:23;94710.22;;;15.25;33.32
49393;BME280;35268;42.642;23.308;2023-10-09T09:36:10;94707.69;;;15.29;33.28
49393;BME280;35268;42.642;23.308;2023-10-09T09:41:26;94682.03;;;15.40;33.66
49393;BME280;35268;42.642;23.308;2023-10-09T09:43:56;94680.13;;;15.40;34.01
49393;BME280;35268;42.642;23.308;2023-10-09T09:46:25;94687.31;;;15.57;33.71
49393;BME280;35268;42.642;23.308;2023-10-09T09:49:00;94701.81;;;15.65;33.12
49393;BME280;35268;42.642;23.308;2023-10-09T09:51:26;94695.78;;;15.68;32.64
49393;BME280;35268;42.642;23.308;2023-10-09T09:53:55;94694.84;;;15.73;32.38
49393;BME280;35268;42.642;23.308;2023-10-09T09:56:24;94692.75;;;15.78;32.73
49393;BME280;35268;42.642;23.308;2023-10-09T09:58:50;94678.34;;;15.83;32.58
49393;BME280;35268;42.642;23.308;2023-10-09T10:01:26;94681.63;;;15.89;32.50
49393;BME280;35268;42.642;23.308;2023-10-09T10:04:03;94655.50;;;15.98;32.31
49393;BME280;35268;42.642;23.308;2023-10-09T10:06:32;94656.66;;;16.09;31.89
49393;BME280;35268;42.642;23.308;2023-10-09T10:08:58;94655.63;;;16.22;31.16
49393;BME280;35268;42.642;23.308;2023-10-09T10:11:46;94647.34;;;16.28;31.62
49393;BME280;35268;42.642;23.308;2023-10-09T10:14:17;94643.53;;;16.29;31.13
49393;BME280;35268;42.642;23.308;2023-10-09T10:17:02;94645.38;;;16.37;30.28
49393;BME280;35268;42.642;23.308;2023-10-09T10:22:45;94640.63;;;16.55;30.93
49393;BME280;35268;42.642;23.308;2023-10-09T10:25:52;94627.41;;;16.62;30.14
49393;BME280;35268;42.642;23.308;2023-10-09T10:28:33;94625.03;;;16.60;30.36
49393;BME280;35268;42.642;23.308;2023-10-09T10:34:24;94603.06;;;16.71;29.00
49393;BME280;35268;42.642;23.308;2023-10-09T10:36:51;94590.19;;;16.76;28.59
49393;BME280;35268;42.642;23.308;2023-10-09T10:39:50;94585.63;;;16.89;29.16
49393;BME280;35268;42.642;23.308;2023-10-09T10:42:15;94590.34;;;16.92;29.59
49393;BME280;35268;42.642;23.308;2023-10-09T10:45:05;94579.16;;;17.02;29.93
49393;BME280;35268;42.642;23.308;2023-10-09T10:47:51;94577.03;;;17.08;29.29
49393;BME280;35268;42.642;23.308;2023-10-09T10:50:21;94576.00;;;17.25;29.96
49393;BME280;35268;42.642;23.308;2023-10-09T10:53:14;94570.84;;;17.44;29.08
49393;BME280;35268;42.642;23.308;2023-10-09T10:56:00;94569.56;;;17.54;29.43
49393;BME280;35268;42.642;23.308;2023-10-09T10:58:38;94563.25;;;17.62;29.42
49393;BME280;35268;42.642;23.308;2023-10-09T11:01:03;94561.00;;;17.77;28.37
49393;BME280;35268;42.642;23.308;2023-10-09T11:03:39;94558.38;;;17.80;28.82
49393;BME280;35268;42.642;23.308;2023-10-09T11:06:26;94562.56;;;17.90;28.89
49393;BME280;35268;42.642;23.308;2023-10-09T11:09:05;94568.69;;;18.03;28.34
49393;BME280;35268;42.642;23.308;2023-10-09T11:11:35;94568.00;;;18.06;29.09
49393;BME280;35268;42.642;23.308;2023-10-09T11:14:12;94567.19;;;18.18;28.91
49393;BME280;35268;42.642;23.308;2023-10-09T11:16:43;94545.19;;;18.32;29.13
49393;BME280;35268;42.642;23.308;2023-10-09T11:19:13;94536.84;;;18.37;27.59
49393;BME280;35268;42.642;23.308;2023-10-09T11:21:52;94527.03;;;18.44;27.98
49393;BME280;35268;42.642;23.308;2023-10-09T11:24:27;94525.09;;;18.45;27.71
49393;BME280;35268;42.642;23.308;2023-10-09T11:26:58;94517.19;;;18.52;27.93
49393;BME280;35268;42.642;23.308;2023-10-09T11:29:30;94502.13;;;18.67;28.43
49393;BME280;35268;42.642;23.308;2023-10-09T11:32:09;94498.94;;;18.93;27.15
49393;BME280;35268;42.642;23.308;2023-10-09T11:34:43;94510.06;;;19.08;27.19
49393;BME280;35268;42.642;23.308;2023-10-09T11:37:18;94502.31;;;19.06;26.78
49393;BME280;35268;42.642;23.308;2023-10-09T11:40:07;94516.06;;;19.01;27.26
49393;BME280;35268;42.642;23.308;2023-10-09T11:42:49;94510.94;;;19.12;26.87
49393;BME280;35268;42.642;23.308;2023-10-09T11:45:26;94505.53;;;19.12;27.10
49393;BME280;35268;42.642;23.308;2023-10-09T11:47:56;94508.66;;;19.14;26.94
49393;BME280;35268;42.642;23.308;2023-10-09T11:53:19;94493.31;;;19.18;26.65
49393;BME280;35268;42.642;23.308;2023-10-09T11:55:59;94492.00;;;19.12;25.88
49393;BME280;35268;42.642;23.308;2023-10-09T11:58:25;94486.75;;;19.19;25.78
49393;BME280;35268;42.642;23.308;2023-10-09T12:00:54;94475.03;;;19.31;25.83
49393;BME280;35268;42.642;23.308;2023-10-09T12:03:31;94469.72;;;19.34;23.89
49393;BME280;35268;42.642;23.308;2023-10-09T12:05:57;94456.94;;;19.51;24.59
49393;BME280;35268;42.642;23.308;2023-10-09T12:08:24;94458.00;;;19.65;24.00
49393;BME280;35268;42.642;23.308;2023-10-09T12:10:52;94453.00;;;19.68;23.85
49393;BME280;35268;42.642;23.308;2023-10-09T12:13:20;94439.75;;;19.78;24.14
49393;BME280;35268;42.642;23.308;2023-10-09T12:15:47;94457.53;;;19.79;23.54
49393;BME280;35268;42.642;23.308;2023-10-09T12:18:13;94448.34;;;19.84;24.05
49393;BME280;35268;42.642;23.308;2023-10-09T12:20:43;94446.22;;;19.93;23.26
49393;BME280;35268;42.642;23.308;2023-10-09T12:23:20;94442.78;;;19.96;22.29
49393;BME280;35268;42.642;23.308;2023-10-09T12:25:49;94440.88;;;19.97;21.18
49393;BME280;35268;42.642;23.308;2023-10-09T12:28:15;94445.44;;;19.93;21.56
49393;BME280;35268;42.642;23.308;2023-10-09T12:30:41;94441.06;;;19.88;22.18
49393;BME280;35268;42.642;23.308;2023-10-09T12:33:07;94437.84;;;20.02;22.03
49393;BME280;35268;42.642;23.308;2023-10-09T12:35:39;94420.69;;;20.14;21.23
49393;BME280;35268;42.642;23.308;2023-10-09T12:38:06;94424.53;;;20.36;20.37
49393;BME280;35268;42.642;23.308;2023-10-09T12:40:36;94423.97;;;20.27;19.77
49393;BME280;35268;42.642;23.308;2023-10-09T12:43:02;94422.13;;;20.31;19.75
49393;BME280;35268;42.642;23.308;2023-10-09T12:45:28;94414.53;;;20.40;19.35
49393;BME280;35268;42.642;23.308;2023-10-09T12:47:58;94402.97;;;20.43;19.38
49393;BME280;35268;42.642;23.308;2023-10-09T12:50:29;94397.69;;;20.50;19.69
49393;BME280;35268;42.642;23.308;2023-10-09T12:52:58;94400.47;;;20.54;19.43
49393;BME280;35268;42.642;23.308;2023-10-09T12:55:34;94402.63;;;20.68;19.56
49393;BME280;35268;42.642;23.308;2023-10-09T12:58:01;94388.44;;;20.78;19.21
49393;BME280;35268;42.642;23.308;2023-10-09T13:00:35;94381.75;;;20.95;19.60
49393;BME280;35268;42.642;23.308;2023-10-09T13:03:06;94386.81;;;21.00;18.74
49393;BME280;35268;42.642;23.308;2023-10-09T13:05:55;94382.16;;;20.97;18.63
49393;BME280;35268;42.642;23.308;2023-10-09T13:08:25;94380.03;;;21.13;18.73
49393;BME280;35268;42.642;23.308;2023-10-09T13:11:02;94386.53;;;21.35;18.39
49393;BME280;35268;42.642;23.308;2023-10-09T13:13:35;94379.22;;;21.73;17.79
49393;BME280;35268;42.642;23.308;2023-10-09T13:16:19;94369.13;;;22.11;17.75
49393;BME280;35268;42.642;23.308;2023-10-09T13:18:56;94372.00;;;22.74;17.66
49393;BME280;35268;42.642;23.308;2023-10-09T13:21:26;94355.63;;;23.36;16.05
49393;BME280;35268;42.642;23.308;2023-10-09T13:23:52;94355.81;;;23.79;15.87
49393;BME280;35268;42.642;23.308;2023-10-09T13:26:22;94354.31;;;24.14;15.63
49393;BME280;35268;42.642;23.308;2023-10-09T13:29:00;94362.88;;;24.23;15.05
49393;BME280;35268;42.642;23.308;2023-10-09T13:31:26;94351.56;;;24.18;15.51
49393;BME280;35268;42.642;23.308;2023-10-09T13:33:53;94336.81;;;24.08;15.22
49393;BME280;35268;42.642;23.308;2023-10-09T13:36:27;94353.81;;;23.76;15.98
49393;BME280;35268;42.642;23.308;2023-10-09T13:38:58;94351.50;;;23.71;15.34
49393;BME280;35268;42.642;23.308;2023-10-09T13:41:27;94351.03;;;23.55;16.00